Share

Amman, Jordan

Marka International (OJAM) Elev 2556 ft | 31.97 °N, 35.99 °E | Change Station

Current weather conditions updated 1 hour ago

Clear
Clear
77 °F
Feels Like 77 °F
N
9
Wind Variable Wind from SW
Sunrise 6:01 AM
Sunset 7:08 PM
Moon Waning Gibbous

Today is forecast to be Cooler than yesterday.

Pressure 29.98 in
Visibility 1.2 miles
Clouds
Dew Point 46 °F
Humidity 34%
Rainfall 0.00 in
Snow Depth Not available.
UV Not available.
Pollen Not available.
Air Quality Not available.
Flu Activity Not available.
METAR OJAM 200600Z 22008KT 2000 DU NSC 25/08 Q1015 NOSIG

More Conditions Fewer Conditions

Pressure 29.98 in
Visibility 1.2 miles
Clouds
Dew Point 46 °F
Humidity 34%
Rainfall 0.00 in
Snow Depth Not available.
UV Not available.
Pollen Not available.
Air Quality Not available.
Flu Activity Not available.
METAR OJAM 200600Z 22008KT 2000 DU NSC 25/08 Q1015 NOSIG

More Conditions Fewer Conditions

10-Day Weather Forecast

Almanac

Astronomy

Apr. 20, 2014 Rise Set
Actual Time 6:01 AM EEST 7:08 PM EEST
Civil Twilight 5:36 AM EEST 7:33 PM EEST
Nautical Twilight 5:06 AM EEST 8:04 PM EEST
Astronomical Twilight 4:35 AM EEST 8:35 PM EEST
Moon No Moon Rise 10:07 AM EEST
Length of Visible Light 13h 57m
Length of Day
13h 06m
Tomorrow will be 1m 48s longer.
Waning Gibbous, 72% of the Moon is Illuminated
Today
Waning Gibbous
Apr 22
Last Quarter
Apr 29
New
May 6
First Quarter
May 14
Full

Yesterday's Extremes

Country Highs Country Lows

Community

  • Sunny day at the coast-Cape Arago Lighthouse
    Sunny day at the coast-Cape Arago Lighthouse
  • Cherry Blossoms
    Cherry Blossoms
  • White-Crowned Sparrow
    White-Crowned Sparrow
  • New Day
    New Day
  • Happy Easter!
    Happy Easter!

WunderPhotos

Upload Photos

1,703,085 photos uploaded!

WunderBlogs® & News

Nearby

Snow Depth

Not available.

Coastal Water Temperatures

Place Temperature
No Stations Reporting

Earthquake Activity

City Distance Mag. Time & Date
No recent earthquake activity has been reported nearby.
Minimum magnitude displayed is 2.5.

Nearby Weather Stations

Station Location Temp. Heat Index Dew Point Humidity Wind Precip. Elev Updated Type
Amman West_Adam Weather, Amman 74.7 °F 77 °F 50 °F 42% West  at  2.2 mph 0.00 in / hr 3281 ft 10:05 AM EEST Rapid Fire
Amman, Marj al-Hamam 75.6 °F 77 °F 38 °F 26% West  at  11.5 mph 0.00 in / hr 3035 ft 10:05 AM IDT Normal

Show More Stations Show Fewer Stations

What do you think?

We're not finished. Please let us know what you like, what you don't like, and what you are still missing.